createdAt,value
2022-09-18T00:00:50.446Z,9.30
2022-09-18T00:01:52.207Z,8.44
2022-09-18T00:02:54.078Z,8.78
2022-09-18T00:03:58.728Z,7.11
2022-09-18T00:05:01.246Z,7.10
2022-09-18T00:06:08.864Z,8.30
2022-09-18T00:07:10.821Z,8.60
2022-09-18T00:08:12.729Z,8.20
2022-09-18T00:09:14.959Z,7.78
2022-09-18T00:10:19.051Z,7.60
2022-09-18T00:11:23.255Z,8.00
2022-09-18T00:12:25.198Z,8.10
2022-09-18T00:13:27.015Z,8.50
2022-09-18T00:14:29.141Z,5.44
2022-09-18T00:15:31.602Z,8.40
2022-09-18T00:16:34.375Z,8.70
2022-09-18T00:17:36.818Z,7.60
2022-09-18T00:18:39.286Z,8.40
2022-09-18T00:19:41.551Z,8.10
2022-09-18T00:20:43.538Z,8.40
2022-09-18T00:21:48.615Z,5.78
2022-09-18T00:22:50.561Z,8.10
2022-09-18T00:23:56.136Z,8.70
2022-09-18T00:24:58.073Z,6.60
2022-09-18T00:26:00.101Z,8.30
2022-09-18T00:27:01.877Z,7.70
2022-09-18T00:28:04.365Z,7.67
2022-09-18T00:29:06.864Z,8.50
2022-09-18T00:30:10.611Z,7.90
2022-09-18T00:31:18.830Z,9.20
2022-09-18T00:32:21.275Z,8.00
2022-09-18T00:33:23.928Z,8.40
2022-09-18T00:34:25.764Z,8.00
2022-09-18T00:35:27.599Z,9.33
2022-09-18T00:36:30.117Z,8.70
2022-09-18T00:37:31.871Z,7.44
2022-09-18T00:38:34.629Z,7.11
2022-09-18T00:39:37.179Z,9.45
2022-09-18T00:40:39.250Z,8.00
2022-09-18T00:41:44.701Z,7.20
2022-09-18T00:42:46.790Z,8.40
2022-09-18T00:43:49.876Z,7.10
2022-09-18T00:44:51.703Z,8.60
2022-09-18T00:45:57.496Z,10.67
2022-09-18T00:47:27.795Z,9.20
2022-09-18T00:48:40.648Z,7.70
2022-09-18T00:51:05.962Z,8.70
2022-09-18T00:52:10.356Z,9.10
2022-09-18T00:53:13.034Z,7.80
2022-09-18T00:54:21.682Z,8.00
2022-09-18T00:55:30.057Z,7.90
2022-09-18T00:56:34.714Z,8.10
2022-09-18T00:57:40.305Z,8.18
2022-09-18T00:58:43.753Z,6.50
2022-09-18T00:59:47.705Z,8.40
2022-09-18T01:00:50.287Z,8.80
2022-09-18T01:01:55.624Z,7.64
2022-09-18T01:02:59.516Z,8.90
2022-09-18T01:04:01.793Z,7.90
2022-09-18T01:05:04.829Z,9.20
2022-09-18T01:06:34.312Z,7.80
2022-09-18T01:07:59.560Z,9.40
2022-09-18T01:09:25.226Z,7.90
2022-09-18T01:10:39.961Z,6.90
2022-09-18T01:11:48.229Z,7.30
2022-09-18T01:12:56.588Z,7.50
2022-09-18T01:14:23.113Z,8.20
2022-09-18T01:15:28.803Z,9.50
2022-09-18T01:16:58.839Z,5.90
2022-09-18T01:18:19.905Z,8.70
2022-09-18T01:19:45.374Z,9.90
2022-09-18T01:21:12.506Z,9.20
2022-09-18T01:22:24.105Z,9.60
2022-09-18T01:23:39.216Z,8.90
2022-09-18T01:24:56.989Z,8.90
2022-09-18T01:26:06.197Z,9.70
2022-09-18T01:27:11.303Z,6.60
2022-09-18T01:28:28.896Z,7.80
2022-09-18T01:29:52.928Z,8.20
2022-09-18T01:30:58.970Z,8.40
2022-09-18T01:32:17.158Z,8.90
2022-09-18T01:33:25.595Z,8.20
2022-09-18T01:34:48.041Z,8.70
2022-09-18T01:35:54.145Z,6.40
2022-09-18T01:37:02.736Z,8.70
2022-09-18T01:38:08.554Z,8.70
2022-09-18T01:39:14.650Z,8.60
2022-09-18T01:40:27.764Z,9.00
2022-09-18T01:41:30.798Z,9.00
2022-09-18T01:42:35.988Z,7.90
2022-09-18T01:43:39.792Z,9.30
2022-09-18T01:44:44.739Z,8.90
2022-09-18T01:45:50.724Z,8.00
2022-09-18T01:46:58.402Z,9.70
2022-09-18T01:49:21.841Z,7.80
2022-09-18T01:50:29.712Z,8.40
2022-09-18T01:51:45.191Z,7.70
2022-09-18T01:53:02.835Z,8.60
2022-09-18T01:54:09.779Z,8.50
2022-09-18T01:55:15.489Z,9.20
2022-09-18T01:56:21.465Z,8.10
2022-09-18T01:57:34.546Z,7.20
2022-09-18T01:58:37.293Z,7.70
2022-09-18T01:59:44.044Z,8.70
2022-09-18T02:00:56.817Z,8.90
2022-09-18T02:02:02.556Z,9.30
2022-09-18T02:03:11.571Z,8.60
2022-09-18T02:04:22.881Z,8.20
2022-09-18T02:05:29.488Z,8.90
2022-09-18T02:06:38.079Z,8.40
2022-09-18T02:08:01.888Z,9.10
2022-09-18T02:09:05.475Z,10.10
2022-09-18T02:10:08.721Z,8.20
2022-09-18T02:11:13.972Z,9.60
2022-09-18T02:12:19.978Z,9.00
2022-09-18T02:14:40.574Z,8.60
2022-09-18T02:16:04.829Z,8.00
2022-09-18T02:17:11.016Z,9.10
2022-09-18T02:18:16.710Z,9.70
2022-09-18T02:19:29.037Z,9.00
2022-09-18T02:20:34.273Z,10.40
2022-09-18T02:21:40.273Z,9.30
2022-09-18T02:22:45.065Z,9.60
2022-09-18T02:23:48.016Z,9.70
2022-09-18T02:24:53.748Z,8.82
2022-09-18T02:25:58.779Z,8.50
2022-09-18T02:27:03.930Z,8.90
2022-09-18T02:28:08.824Z,9.70
2022-09-18T02:29:15.093Z,9.00
2022-09-18T02:30:22.339Z,8.20
2022-09-18T02:31:25.181Z,8.00
2022-09-18T02:32:28.058Z,8.50
2022-09-18T02:33:36.246Z,8.50
2022-09-18T02:34:38.479Z,8.70
2022-09-18T02:35:44.555Z,7.50
2022-09-18T02:36:59.577Z,8.40
2022-09-18T02:38:17.300Z,7.40
2022-09-18T02:39:34.969Z,8.20
2022-09-18T02:40:55.848Z,8.20
2022-09-18T02:42:19.246Z,8.00
2022-09-18T02:43:46.357Z,8.10
2022-09-18T02:45:05.062Z,7.40
2022-09-18T02:46:18.580Z,7.40
2022-09-18T02:47:48.455Z,9.00
2022-09-18T02:49:10.784Z,7.30
2022-09-18T02:50:34.709Z,8.00
2022-09-18T02:51:46.669Z,7.90
2022-09-18T02:53:11.703Z,8.20
2022-09-18T02:54:20.783Z,9.00
2022-09-18T02:55:29.545Z,7.90
2022-09-18T02:56:41.370Z,6.50
2022-09-18T02:57:50.542Z,7.00
2022-09-18T02:58:58.916Z,8.40
2022-09-18T03:00:03.897Z,8.00
2022-09-18T03:01:09.843Z,8.50
2022-09-18T03:02:12.741Z,7.90
2022-09-18T03:03:16.476Z,7.00
2022-09-18T03:04:22.932Z,8.30
2022-09-18T03:05:30.600Z,7.20
2022-09-18T03:06:34.612Z,8.20
2022-09-18T03:07:37.270Z,7.60
2022-09-18T03:08:39.342Z,8.10
2022-09-18T03:09:42.347Z,8.30
2022-09-18T03:10:44.826Z,7.50
2022-09-18T03:11:46.842Z,6.60
2022-09-18T03:12:48.819Z,7.00
2022-09-18T03:13:50.923Z,7.70
2022-09-18T03:14:53.020Z,7.00
2022-09-18T03:15:56.129Z,7.90
2022-09-18T03:17:01.394Z,7.50
2022-09-18T03:18:03.741Z,6.70
2022-09-18T03:19:05.759Z,6.80
2022-09-18T03:20:08.725Z,6.80
2022-09-18T03:21:11.775Z,8.50
2022-09-18T03:22:14.601Z,7.00
2022-09-18T03:23:17.851Z,7.20
2022-09-18T03:24:21.768Z,8.10
2022-09-18T03:25:23.872Z,7.80
2022-09-18T03:26:27.169Z,7.70
2022-09-18T03:27:29.185Z,7.80
2022-09-18T03:28:32.215Z,0.20
2022-09-18T03:29:36.167Z,8.10
2022-09-18T03:30:38.587Z,4.90
2022-09-18T03:31:40.817Z,6.50
2022-09-18T03:32:42.855Z,6.90
2022-09-18T03:33:45.501Z,8.70
2022-09-18T03:34:48.726Z,7.10
2022-09-18T03:35:52.439Z,7.30
2022-09-18T03:36:54.555Z,6.80
2022-09-18T03:37:56.543Z,7.20
2022-09-18T03:39:00.544Z,7.00
2022-09-18T03:40:05.747Z,7.00
2022-09-18T03:41:08.438Z,6.50
2022-09-18T03:42:12.188Z,7.10
2022-09-18T03:43:14.709Z,6.30
2022-09-18T03:44:17.086Z,7.82
2022-09-18T03:45:20.226Z,7.40
2022-09-18T03:46:23.399Z,7.40
2022-09-18T03:47:27.656Z,6.80
2022-09-18T03:48:29.852Z,6.80
2022-09-18T03:49:32.725Z,6.36
2022-09-18T03:50:35.207Z,6.10
2022-09-18T03:51:39.188Z,6.20
2022-09-18T03:52:42.533Z,6.20
2022-09-18T03:53:47.494Z,6.70
2022-09-18T03:55:04.082Z,6.30
2022-09-18T03:56:17.493Z,6.60
2022-09-18T03:57:23.947Z,5.40
2022-09-18T03:58:30.799Z,6.00
2022-09-18T03:59:40.398Z,5.20
2022-09-18T04:00:44.305Z,5.40
2022-09-18T04:01:48.735Z,5.60
2022-09-18T04:02:55.757Z,6.10
2022-09-18T04:04:05.644Z,6.00
2022-09-18T04:05:26.688Z,5.50
2022-09-18T04:06:47.198Z,6.40
2022-09-18T04:07:56.660Z,5.60
2022-09-18T04:09:00.534Z,5.30
2022-09-18T04:10:05.004Z,6.30
2022-09-18T04:11:06.984Z,5.60
2022-09-18T04:12:08.984Z,5.20
2022-09-18T04:13:11.077Z,5.10
2022-09-18T04:14:13.566Z,5.90
2022-09-18T04:15:16.441Z,6.40
2022-09-18T04:16:18.815Z,6.20
2022-09-18T04:17:21.298Z,4.80
2022-09-18T04:18:23.313Z,5.50
2022-09-18T04:19:25.484Z,6.00
2022-09-18T04:20:28.317Z,5.60
2022-09-18T04:21:30.570Z,4.90
2022-09-18T04:22:33.372Z,5.30
2022-09-18T04:23:36.101Z,4.80
2022-09-18T04:24:38.303Z,5.80
2022-09-18T04:25:41.534Z,6.70
2022-09-18T04:26:43.631Z,5.60
2022-09-18T04:27:45.822Z,6.80
2022-09-18T04:28:47.754Z,5.67
2022-09-18T04:29:49.903Z,5.33
2022-09-18T04:30:52.406Z,5.60
2022-09-18T04:31:54.574Z,5.40
2022-09-18T04:32:57.836Z,5.00
2022-09-18T04:34:00.040Z,4.70
2022-09-18T04:35:01.984Z,4.33
2022-09-18T04:36:04.784Z,4.80
2022-09-18T04:37:10.099Z,5.10
2022-09-18T04:38:11.273Z,5.30
2022-09-18T04:39:13.155Z,4.60
2022-09-18T04:40:17.261Z,5.00
2022-09-18T04:41:21.347Z,5.20
2022-09-18T04:42:23.319Z,4.50
2022-09-18T04:43:27.705Z,4.00
2022-09-18T04:44:30.384Z,5.10
2022-09-18T04:45:33.227Z,5.00
2022-09-18T04:46:37.167Z,4.40
2022-09-18T04:47:40.098Z,4.40
2022-09-18T04:48:48.276Z,5.20
2022-09-18T04:49:50.551Z,5.60
2022-09-18T04:50:54.097Z,3.80
2022-09-18T04:51:56.909Z,4.80
2022-09-18T04:52:59.415Z,4.40
2022-09-18T04:54:02.080Z,4.50
2022-09-18T04:55:05.176Z,5.00
2022-09-18T04:56:08.629Z,5.20
2022-09-18T04:57:11.060Z,5.50
2022-09-18T04:58:14.486Z,5.00
2022-09-18T04:59:17.743Z,5.10
2022-09-18T05:00:23.432Z,5.30
2022-09-18T05:01:25.571Z,6.40
2022-09-18T05:02:29.263Z,4.50
2022-09-18T05:03:31.468Z,5.60
2022-09-18T05:04:34.101Z,5.00
2022-09-18T05:05:37.976Z,4.80
2022-09-18T05:06:40.666Z,4.91
2022-09-18T05:07:42.865Z,4.90
2022-09-18T05:08:45.475Z,4.60
2022-09-18T05:09:47.491Z,5.10
2022-09-18T05:10:50.480Z,5.90
2022-09-18T05:11:52.332Z,5.50
2022-09-18T05:12:54.656Z,6.22
2022-09-18T05:13:57.112Z,6.00
2022-09-18T05:15:01.047Z,6.30
2022-09-18T05:16:03.892Z,6.10
2022-09-18T05:17:06.489Z,5.60
2022-09-18T05:18:17.187Z,5.90
2022-09-18T05:19:19.699Z,6.30
2022-09-18T05:20:22.479Z,7.27
2022-09-18T05:21:24.794Z,7.30
2022-09-18T05:22:26.832Z,6.90
2022-09-18T05:23:29.038Z,6.80
2022-09-18T05:24:31.715Z,6.91
2022-09-18T05:25:34.289Z,7.90
2022-09-18T05:26:39.021Z,7.30
2022-09-18T05:27:42.191Z,7.30
2022-09-18T05:28:49.820Z,7.10
2022-09-18T05:29:51.840Z,7.80
2022-09-18T05:31:00.380Z,6.70
2022-09-18T05:32:04.799Z,7.90
2022-09-18T05:33:10.518Z,7.30
2022-09-18T05:34:14.232Z,6.50
2022-09-18T05:35:16.460Z,6.40
2022-09-18T05:36:21.500Z,6.70
2022-09-18T05:37:28.612Z,7.20
2022-09-18T05:38:31.021Z,8.00
2022-09-18T05:39:33.127Z,8.00
2022-09-18T05:40:37.829Z,8.50
2022-09-18T05:41:40.406Z,7.00
2022-09-18T05:42:47.150Z,8.00
2022-09-18T05:43:49.626Z,8.00
2022-09-18T05:44:51.410Z,8.00
2022-09-18T05:45:56.437Z,6.90
2022-09-18T05:47:00.290Z,8.00
2022-09-18T05:48:04.523Z,7.90
2022-09-18T05:49:07.211Z,8.40
2022-09-18T05:50:12.144Z,8.00
2022-09-18T05:51:14.089Z,7.00
2022-09-18T05:52:16.303Z,8.30
2022-09-18T05:53:20.687Z,8.70
2022-09-18T05:54:40.797Z,7.80
2022-09-18T05:55:45.077Z,6.40
2022-09-18T05:56:48.699Z,7.50
2022-09-18T05:57:52.392Z,9.50
2022-09-18T05:58:55.648Z,7.80
2022-09-18T05:59:57.890Z,7.30
2022-09-18T06:01:01.962Z,7.40
2022-09-18T06:02:05.934Z,7.40
2022-09-18T06:03:12.435Z,7.90
2022-09-18T06:04:15.106Z,8.40
2022-09-18T06:05:18.865Z,7.90
2022-09-18T06:06:24.235Z,7.20
2022-09-18T06:07:26.824Z,8.30
2022-09-18T06:08:28.975Z,9.30
2022-09-18T06:09:30.785Z,8.20
2022-09-18T06:10:35.935Z,8.60
2022-09-18T06:11:41.923Z,8.10
2022-09-18T06:12:45.432Z,8.60
2022-09-18T06:13:47.690Z,7.80
2022-09-18T06:14:49.584Z,7.70
2022-09-18T06:15:51.719Z,8.00
2022-09-18T06:16:55.617Z,6.40
2022-09-18T06:17:58.408Z,9.00
2022-09-18T06:19:00.362Z,9.80
2022-09-18T06:20:04.385Z,7.00
2022-09-18T06:21:06.740Z,7.70
2022-09-18T06:22:08.736Z,7.80
2022-09-18T06:23:11.287Z,9.70
2022-09-18T06:24:15.331Z,8.90
2022-09-18T06:25:19.570Z,8.00
2022-09-18T06:26:22.614Z,8.10
2022-09-18T06:27:25.525Z,8.40
2022-09-18T06:28:29.231Z,8.10
2022-09-18T06:29:32.677Z,7.80
2022-09-18T06:30:36.709Z,8.60
2022-09-18T06:31:39.348Z,8.60
2022-09-18T06:32:43.695Z,8.40
2022-09-18T06:33:48.055Z,8.40
2022-09-18T06:34:51.141Z,7.80
2022-09-18T06:35:53.649Z,7.40
2022-09-18T06:36:57.470Z,6.70
2022-09-18T06:38:11.078Z,8.80
2022-09-18T06:39:15.375Z,7.00
2022-09-18T06:40:20.500Z,8.00
2022-09-18T06:41:40.838Z,9.20
2022-09-18T06:42:46.177Z,7.60
2022-09-18T06:43:50.157Z,9.90
2022-09-18T06:44:54.055Z,8.30
2022-09-18T06:45:56.968Z,8.00
2022-09-18T06:47:00.924Z,6.10
2022-09-18T06:48:05.638Z,6.60
2022-09-18T06:49:09.513Z,6.80
2022-09-18T06:50:13.979Z,7.50
2022-09-18T06:51:16.006Z,7.20
2022-09-18T06:52:20.898Z,6.50
2022-09-18T06:53:25.241Z,7.00
2022-09-18T06:54:29.074Z,7.80
2022-09-18T06:55:30.942Z,7.10
2022-09-18T06:56:33.898Z,7.73
2022-09-18T06:57:35.688Z,8.00
2022-09-18T06:58:39.331Z,6.50
2022-09-18T06:59:42.328Z,5.70
2022-09-18T07:00:45.836Z,5.70
2022-09-18T07:01:49.035Z,6.60
2022-09-18T07:03:12.801Z,7.50
2022-09-18T07:04:27.082Z,9.00
2022-09-18T07:05:31.495Z,10.60
2022-09-18T07:06:33.772Z,9.50
2022-09-18T07:07:35.673Z,8.90
2022-09-18T07:08:38.190Z,8.30
2022-09-18T07:09:42.943Z,8.10
2022-09-18T07:10:47.030Z,8.60
2022-09-18T07:11:48.853Z,8.30
2022-09-18T07:12:58.970Z,8.60
2022-09-18T07:14:01.463Z,7.90
2022-09-18T07:15:05.067Z,6.50
2022-09-18T07:16:07.293Z,6.40
2022-09-18T07:17:14.104Z,6.50
2022-09-18T07:18:14.992Z,6.80
2022-09-18T07:19:18.103Z,5.10
2022-09-18T07:20:21.164Z,5.50
2022-09-18T07:21:23.612Z,7.20
2022-09-18T07:22:27.387Z,6.70
2022-09-18T07:23:29.794Z,6.10
2022-09-18T07:24:32.139Z,7.00
2022-09-18T07:25:34.220Z,6.50
2022-09-18T07:26:37.402Z,0.40
2022-09-18T07:27:40.021Z,7.20
2022-09-18T07:28:42.191Z,5.70
2022-09-18T07:29:48.915Z,6.60
2022-09-18T07:30:51.026Z,6.80
2022-09-18T07:31:53.106Z,7.20
2022-09-18T07:32:55.502Z,6.40
2022-09-18T07:33:59.226Z,7.70
2022-09-18T07:35:03.372Z,6.30
2022-09-18T07:36:07.022Z,5.80
2022-09-18T07:37:10.798Z,5.70
2022-09-18T07:38:13.460Z,5.40
2022-09-18T07:39:29.503Z,6.80
2022-09-18T07:40:49.876Z,6.40
2022-09-18T07:41:54.266Z,4.90
2022-09-18T07:43:05.855Z,5.40
2022-09-18T07:44:09.195Z,5.50
2022-09-18T07:45:11.490Z,5.30
2022-09-18T07:46:15.101Z,5.00
2022-09-18T07:47:19.765Z,6.00
2022-09-18T07:48:22.289Z,4.60
2022-09-18T07:49:25.433Z,5.60
2022-09-18T07:50:28.410Z,5.00
2022-09-18T07:51:41.271Z,5.60
2022-09-18T07:52:53.911Z,5.10
2022-09-18T07:53:57.571Z,5.30
2022-09-18T07:55:05.948Z,7.10
2022-09-18T07:56:10.894Z,6.60
2022-09-18T07:57:13.273Z,4.40
2022-09-18T07:58:17.117Z,5.90
2022-09-18T07:59:26.571Z,5.70
2022-09-18T08:00:33.871Z,5.20
2022-09-18T08:01:36.739Z,4.80
2022-09-18T08:02:41.052Z,4.80
2022-09-18T08:03:43.863Z,7.30
2022-09-18T08:04:48.861Z,4.70
2022-09-18T08:06:07.355Z,5.50
2022-09-18T08:07:09.836Z,6.40
2022-09-18T08:08:30.390Z,5.30
2022-09-18T08:09:40.877Z,6.50
2022-09-18T08:10:49.024Z,5.40
2022-09-18T08:12:08.647Z,5.40
2022-09-18T08:13:19.802Z,5.40
2022-09-18T08:14:28.945Z,6.00
2022-09-18T08:15:37.792Z,6.00
2022-09-18T08:16:58.031Z,6.20
2022-09-18T08:18:02.177Z,5.90
2022-09-18T08:19:06.530Z,5.50
2022-09-18T08:20:14.482Z,5.00
2022-09-18T08:21:18.526Z,6.00
2022-09-18T08:22:25.385Z,7.10
2022-09-18T08:23:29.468Z,6.30
2022-09-18T08:24:34.005Z,6.10
2022-09-18T08:25:36.232Z,5.30
2022-09-18T08:26:38.243Z,6.40
2022-09-18T08:27:43.056Z,5.70
2022-09-18T08:28:47.536Z,5.10
2022-09-18T08:29:49.460Z,6.20
2022-09-18T08:30:56.616Z,5.90
2022-09-18T08:32:03.545Z,5.80
2022-09-18T08:33:07.414Z,6.30
2022-09-18T08:34:09.352Z,5.00
2022-09-18T08:35:11.256Z,8.40
2022-09-18T08:36:14.342Z,6.00
2022-09-18T08:37:18.726Z,7.50
2022-09-18T08:38:39.556Z,6.00
2022-09-18T08:39:49.123Z,6.20
2022-09-18T08:41:05.465Z,7.00
2022-09-18T08:42:27.860Z,5.80
2022-09-18T08:43:49.403Z,5.00
2022-09-18T08:45:01.610Z,6.10
2022-09-18T08:46:20.505Z,5.00
2022-09-18T08:47:29.185Z,5.40
2022-09-18T08:48:36.934Z,5.00
2022-09-18T08:49:46.131Z,5.80
2022-09-18T08:50:57.900Z,5.70
2022-09-18T08:52:19.377Z,5.00
2022-09-18T08:53:27.546Z,4.90
2022-09-18T08:55:04.963Z,4.60
2022-09-18T08:56:25.310Z,5.70
2022-09-18T08:57:49.031Z,5.00
2022-09-18T08:58:59.603Z,4.50
2022-09-18T09:00:08.436Z,2.30
2022-09-18T09:01:14.377Z,5.70
2022-09-18T09:02:34.233Z,4.80
2022-09-18T09:04:00.633Z,4.20
2022-09-18T09:05:20.824Z,4.90
2022-09-18T09:06:52.697Z,4.60
2022-09-18T09:08:20.591Z,5.00
2022-09-18T09:09:38.380Z,5.00
2022-09-18T09:10:44.940Z,4.10
2022-09-18T09:12:12.549Z,4.00
2022-09-18T09:13:41.461Z,4.30
2022-09-18T09:15:21.363Z,3.30
2022-09-18T09:16:43.124Z,3.70
2022-09-18T09:18:18.427Z,4.60
2022-09-18T09:19:28.819Z,4.10
2022-09-18T09:20:57.257Z,7.10
2022-09-18T09:22:19.757Z,4.80
2022-09-18T09:23:46.608Z,3.80
2022-09-18T09:25:18.866Z,3.90
2022-09-18T09:26:25.546Z,3.20
2022-09-18T09:27:35.760Z,3.90
2022-09-18T09:29:00.870Z,4.20
2022-09-18T09:30:08.848Z,4.40
2022-09-18T09:32:57.120Z,4.90
2022-09-18T09:34:08.268Z,3.70
2022-09-18T09:35:31.632Z,4.10
2022-09-18T09:36:56.014Z,3.50
2022-09-18T09:38:02.774Z,4.40
2022-09-18T09:39:23.983Z,4.40
2022-09-18T09:40:45.329Z,4.30
2022-09-18T09:41:57.650Z,4.00
2022-09-18T09:43:24.631Z,3.40
2022-09-18T09:44:40.845Z,3.80
2022-09-18T09:45:48.574Z,3.60
2022-09-18T09:47:07.336Z,4.30
2022-09-18T09:48:19.763Z,4.00
2022-09-18T09:49:26.062Z,3.90
2022-09-18T09:50:42.197Z,5.00
2022-09-18T09:52:09.331Z,5.60
2022-09-18T09:53:12.555Z,4.30
2022-09-18T09:54:15.958Z,4.50
2022-09-18T09:55:24.695Z,5.50
2022-09-18T09:57:01.777Z,1.70
2022-09-18T09:58:17.017Z,3.00
2022-09-18T09:59:36.553Z,3.70
2022-09-18T10:01:15.373Z,5.20
2022-09-18T10:02:42.911Z,4.40
2022-09-18T10:04:00.702Z,5.30
2022-09-18T10:05:13.069Z,5.00
2022-09-18T10:06:25.454Z,5.60
2022-09-18T10:07:37.183Z,6.20
2022-09-18T10:08:50.650Z,5.00
2022-09-18T10:10:13.402Z,5.30
2022-09-18T10:11:17.185Z,5.80
2022-09-18T10:12:37.410Z,4.80
2022-09-18T10:14:01.058Z,4.80
2022-09-18T10:15:13.218Z,5.70
2022-09-18T10:17:35.585Z,5.00
2022-09-18T10:18:41.947Z,5.60
2022-09-18T10:19:46.600Z,5.90
2022-09-18T10:20:53.314Z,5.70
2022-09-18T10:21:56.578Z,5.90
2022-09-18T10:23:05.682Z,7.20
2022-09-18T10:24:14.437Z,6.80
2022-09-18T10:25:31.741Z,6.70
2022-09-18T10:26:44.157Z,7.50
2022-09-18T10:27:47.211Z,7.90
2022-09-18T10:28:51.041Z,8.30
2022-09-18T10:29:53.967Z,8.10
2022-09-18T10:31:02.237Z,7.40
2022-09-18T10:32:07.835Z,8.10
2022-09-18T10:33:39.019Z,8.80
2022-09-18T10:34:46.184Z,9.30
2022-09-18T10:35:50.965Z,8.50
2022-09-18T10:36:53.885Z,9.40
2022-09-18T10:37:57.381Z,11.20
2022-09-18T10:39:19.742Z,9.90
2022-09-18T10:41:42.761Z,10.10
2022-09-18T10:42:51.192Z,9.20
2022-09-18T10:44:04.803Z,11.50
2022-09-18T10:45:23.036Z,8.30
2022-09-18T10:46:32.965Z,10.50
2022-09-18T10:47:38.031Z,11.70
2022-09-18T10:48:44.957Z,11.90
2022-09-18T10:50:00.155Z,11.60
2022-09-18T10:51:03.483Z,11.60
2022-09-18T10:52:22.580Z,12.60
2022-09-18T10:53:36.364Z,8.00
2022-09-18T10:54:41.685Z,9.30
2022-09-18T10:55:55.709Z,8.30
2022-09-18T10:57:01.422Z,14.50
2022-09-18T10:58:07.395Z,11.20
2022-09-18T10:59:30.379Z,12.50
2022-09-18T11:00:40.619Z,11.00
2022-09-18T11:01:45.355Z,13.60
2022-09-18T11:02:56.956Z,11.80
2022-09-18T11:04:05.911Z,13.10
2022-09-18T11:05:19.083Z,14.10
2022-09-18T11:06:27.388Z,12.80
2022-09-18T11:07:30.863Z,7.10
2022-09-18T11:08:35.723Z,12.90
2022-09-18T11:09:40.413Z,12.80
2022-09-18T11:10:50.134Z,7.60
2022-09-18T11:11:53.685Z,8.60
2022-09-18T11:13:01.745Z,12.00
2022-09-18T11:14:08.761Z,10.30
2022-09-18T11:15:19.987Z,10.00
2022-09-18T11:16:26.470Z,10.90
2022-09-18T11:17:34.777Z,11.50
2022-09-18T11:18:38.492Z,12.10
2022-09-18T11:19:41.735Z,11.30
2022-09-18T11:20:50.259Z,12.80
2022-09-18T11:21:57.733Z,11.30
2022-09-18T11:23:30.553Z,11.60
2022-09-18T11:24:38.149Z,12.00
2022-09-18T11:25:42.684Z,12.20
2022-09-18T11:26:52.730Z,10.80
2022-09-18T11:27:57.573Z,11.60
2022-09-18T11:29:20.280Z,12.10
2022-09-18T11:30:27.017Z,12.20
2022-09-18T11:31:47.375Z,11.40
2022-09-18T11:32:56.944Z,13.40
2022-09-18T11:34:01.837Z,10.70
2022-09-18T11:35:09.070Z,10.90
2022-09-18T11:36:16.023Z,9.90
2022-09-18T11:37:40.553Z,11.20
2022-09-18T11:38:45.361Z,11.10
2022-09-18T11:39:55.729Z,13.10
2022-09-18T11:40:59.608Z,11.00
2022-09-18T11:42:10.091Z,12.90
2022-09-18T11:43:17.188Z,11.20
2022-09-18T11:44:30.852Z,12.90
2022-09-18T11:45:54.527Z,12.90
2022-09-18T11:47:19.883Z,12.30
2022-09-18T11:48:41.024Z,11.70
2022-09-18T11:49:46.670Z,10.60
2022-09-18T11:50:53.121Z,11.80
2022-09-18T11:52:00.095Z,11.60
2022-09-18T11:53:10.531Z,13.20
2022-09-18T11:54:18.601Z,11.80
2022-09-18T11:56:50.230Z,13.40
2022-09-18T11:58:00.385Z,13.30
2022-09-18T11:59:12.090Z,12.70
2022-09-18T12:00:19.673Z,13.40
2022-09-18T12:01:45.743Z,10.10
2022-09-18T12:03:07.119Z,11.40
2022-09-18T12:04:43.727Z,12.40
2022-09-18T12:05:59.563Z,12.50
2022-09-18T12:07:39.559Z,12.30
2022-09-18T12:09:04.576Z,10.40
2022-09-18T12:10:45.298Z,12.20
2022-09-18T12:12:03.746Z,9.70
2022-09-18T12:13:23.039Z,12.10
2022-09-18T12:14:50.855Z,13.00
2022-09-18T12:16:28.259Z,11.00
2022-09-18T12:17:39.757Z,12.50
2022-09-18T12:19:02.938Z,11.80
2022-09-18T12:20:24.695Z,14.80
2022-09-18T12:21:43.262Z,10.20
2022-09-18T12:22:49.409Z,11.10
2022-09-18T12:23:53.228Z,17.20
2022-09-18T12:24:57.807Z,12.60
2022-09-18T12:26:24.860Z,12.90
2022-09-18T12:27:51.846Z,11.70
2022-09-18T12:29:26.488Z,13.70
2022-09-18T12:30:43.575Z,12.40
2022-09-18T12:32:15.248Z,12.40
2022-09-18T12:33:37.725Z,11.30
2022-09-18T12:35:02.499Z,12.80
2022-09-18T12:36:36.574Z,11.70
2022-09-18T12:37:55.643Z,14.10
2022-09-18T12:39:05.569Z,18.00
2022-09-18T12:40:14.464Z,16.00
2022-09-18T12:41:20.134Z,12.40
2022-09-18T12:42:50.500Z,12.70
2022-09-18T12:44:02.691Z,16.30
2022-09-18T12:45:23.430Z,15.20
2022-09-18T12:46:42.223Z,14.40
2022-09-18T12:47:57.192Z,13.10
2022-09-18T12:49:14.975Z,18.80
2022-09-18T12:50:36.710Z,21.70
2022-09-18T12:51:49.892Z,14.50
2022-09-18T12:53:18.679Z,19.60
2022-09-18T12:54:43.225Z,15.60
2022-09-18T12:56:18.486Z,14.10
2022-09-18T12:57:30.066Z,15.60
2022-09-18T12:58:45.347Z,23.00
2022-09-18T13:00:03.289Z,16.10
2022-09-18T13:01:24.959Z,16.00
2022-09-18T13:02:40.062Z,13.10
2022-09-18T13:03:45.326Z,16.90
2022-09-18T13:04:54.278Z,16.30
2022-09-18T13:06:08.886Z,14.60
2022-09-18T13:07:23.294Z,14.40
2022-09-18T13:08:32.401Z,20.20
2022-09-18T13:09:43.731Z,26.90
2022-09-18T13:10:47.579Z,15.70
2022-09-18T13:11:55.996Z,19.30
2022-09-18T13:13:01.684Z,86.40
2022-09-18T13:14:19.697Z,35.20
2022-09-18T13:15:25.312Z,41.50
2022-09-18T13:16:38.123Z,46.00
2022-09-18T13:17:43.826Z,48.30
2022-09-18T13:18:55.572Z,40.80
2022-09-18T13:20:17.823Z,32.60
2022-09-18T13:21:32.587Z,27.00
2022-09-18T13:22:37.718Z,25.00
2022-09-18T13:23:42.526Z,17.80
2022-09-18T13:24:48.471Z,14.40
2022-09-18T13:25:52.184Z,14.00
2022-09-18T13:26:56.423Z,19.40
2022-09-18T13:28:01.545Z,16.70
2022-09-18T13:29:05.376Z,18.00
2022-09-18T13:30:17.535Z,15.60
2022-09-18T13:31:23.222Z,17.80
2022-09-18T13:32:37.652Z,19.90
2022-09-18T13:33:39.346Z,18.60
2022-09-18T13:34:47.908Z,18.30
2022-09-18T13:35:53.518Z,42.50
2022-09-18T13:36:59.110Z,23.20
2022-09-18T13:38:11.642Z,26.90
2022-09-18T13:39:28.562Z,20.40
2022-09-18T13:40:38.458Z,17.50
2022-09-18T13:41:44.144Z,16.00
2022-09-18T13:42:47.238Z,22.10
2022-09-18T13:43:58.916Z,15.90
2022-09-18T13:46:33.064Z,12.00
2022-09-18T13:47:39.344Z,14.90
2022-09-18T13:48:46.384Z,15.50
2022-09-18T13:49:54.053Z,12.80
2022-09-18T13:51:06.242Z,13.40
2022-09-18T13:52:31.590Z,12.90
2022-09-18T13:53:37.699Z,12.70
2022-09-18T13:54:41.588Z,12.30
2022-09-18T13:55:50.399Z,11.20
2022-09-18T13:57:06.227Z,11.70
2022-09-18T13:58:31.934Z,10.90
2022-09-18T13:59:57.540Z,8.90
2022-09-18T14:01:03.038Z,8.60
2022-09-18T14:02:09.327Z,8.50
2022-09-18T14:03:18.015Z,9.50
2022-09-18T14:04:42.536Z,6.10
2022-09-18T14:05:44.883Z,6.70
2022-09-18T14:06:47.853Z,7.00
2022-09-18T14:08:05.141Z,6.73
2022-09-18T14:09:46.098Z,6.70
2022-09-18T14:11:14.577Z,3.50
2022-09-18T14:12:12.294Z,6.20
2022-09-18T14:13:18.538Z,4.10
2022-09-18T14:14:23.986Z,3.10
2022-09-18T14:15:29.803Z,3.30
2022-09-18T14:16:35.403Z,5.10
2022-09-18T14:17:37.606Z,4.90
2022-09-18T14:18:46.730Z,3.50
2022-09-18T14:20:01.070Z,4.30
2022-09-18T14:21:18.734Z,2.70
2022-09-18T14:22:25.478Z,2.50
2022-09-18T14:23:38.242Z,3.40
2022-09-18T14:24:52.933Z,2.60
2022-09-18T14:25:55.101Z,2.50
2022-09-18T14:27:01.050Z,2.00
2022-09-18T14:28:06.531Z,2.40
2022-09-18T14:29:12.122Z,0.80
2022-09-18T14:30:27.190Z,2.80
2022-09-18T14:31:38.030Z,1.90
2022-09-18T14:32:43.307Z,2.00
2022-09-18T14:33:45.875Z,3.10
2022-09-18T14:34:52.054Z,2.36
2022-09-18T14:36:01.166Z,2.60
2022-09-18T14:37:21.891Z,1.70
2022-09-18T14:38:35.855Z,1.50
2022-09-18T14:39:38.321Z,2.90
2022-09-18T14:40:40.856Z,3.55
2022-09-18T14:41:43.492Z,3.30
2022-09-18T14:42:46.093Z,2.90
2022-09-18T14:43:54.299Z,3.20
2022-09-18T14:45:15.612Z,2.90
2022-09-18T14:46:20.351Z,2.50
2022-09-18T14:47:27.996Z,2.70
2022-09-18T14:48:36.318Z,3.50
2022-09-18T14:49:53.828Z,3.00
2022-09-18T14:51:14.736Z,3.80
2022-09-18T14:52:32.465Z,2.40
2022-09-18T14:53:43.856Z,2.40
2022-09-18T14:54:53.942Z,3.40
2022-09-18T14:56:01.679Z,3.90
2022-09-18T14:57:04.402Z,4.00
2022-09-18T14:58:13.320Z,4.50
2022-09-18T14:59:18.135Z,3.50
2022-09-18T15:00:25.668Z,3.70
2022-09-18T15:01:31.219Z,3.70
2022-09-18T15:02:37.220Z,3.70
2022-09-18T15:03:50.583Z,3.70
2022-09-18T15:04:53.266Z,3.00
2022-09-18T15:05:58.585Z,2.27
2022-09-18T15:07:01.923Z,2.90
2022-09-18T15:08:08.090Z,2.10
2022-09-18T15:09:13.394Z,1.90
2022-09-18T15:10:18.123Z,3.20
2022-09-18T15:11:23.482Z,3.00
2022-09-18T15:12:27.918Z,2.40
2022-09-18T15:13:33.546Z,3.40
2022-09-18T15:14:45.377Z,2.80
2022-09-18T15:15:44.676Z,1.70
2022-09-18T15:16:56.252Z,2.00
2022-09-18T15:18:00.320Z,3.30
2022-09-18T15:19:02.409Z,1.20
2022-09-18T15:20:16.392Z,2.50
2022-09-18T15:21:30.970Z,2.40